sensor_id;sensor_type;location;lat;lon;timestamp;temperature;humidity
17571;DHT22;8903;52.220;20.978;2022-10-26T00:00:09;12.30;99.90
17571;DHT22;8903;52.220;20.978;2022-10-26T00:02:39;12.30;99.90
17571;DHT22;8903;52.220;20.978;2022-10-26T00:05:07;12.40;99.90
17571;DHT22;8903;52.220;20.978;2022-10-26T00:07:34;12.40;99.90
17571;DHT22;8903;52.220;20.978;2022-10-26T00:10:01;12.40;99.90
17571;DHT22;8903;52.220;20.978;2022-10-26T00:12:27;12.40;99.90
17571;DHT22;8903;52.220;20.978;2022-10-26T00:14:54;12.50;99.90
17571;DHT22;8903;52.220;20.978;2022-10-26T00:17:23;12.50;99.90
17571;DHT22;8903;52.220;20.978;2022-10-26T00:19:50;12.50;99.90
17571;DHT22;8903;52.220;20.978;2022-10-26T00:22:17;12.50;99.90
17571;DHT22;8903;52.220;20.978;2022-10-26T00:24:44;12.50;99.90
17571;DHT22;8903;52.220;20.978;2022-10-26T00:27:11;12.50;99.90
17571;DHT22;8903;52.220;20.978;2022-10-26T00:29:38;12.60;99.90
17571;DHT22;8903;52.220;20.978;2022-10-26T00:32:05;12.60;99.90
17571;DHT22;8903;52.220;20.978;2022-10-26T00:34:33;12.60;99.90
17571;DHT22;8903;52.220;20.978;2022-10-26T00:37:00;12.70;99.90
17571;DHT22;8903;52.220;20.978;2022-10-26T00:39:27;12.70;99.90
17571;DHT22;8903;52.220;20.978;2022-10-26T00:41:54;12.70;99.90
17571;DHT22;8903;52.220;20.978;2022-10-26T00:44:54;12.70;99.90
17571;DHT22;8903;52.220;20.978;2022-10-26T00:47:29;12.70;99.90
17571;DHT22;8903;52.220;20.978;2022-10-26T00:50:02;12.70;99.90
17571;DHT22;8903;52.220;20.978;2022-10-26T00:52:29;12.70;99.90
17571;DHT22;8903;52.220;20.978;2022-10-26T00:54:56;12.70;99.90
17571;DHT22;8903;52.220;20.978;2022-10-26T00:57:23;12.70;99.90
17571;DHT22;8903;52.220;20.978;2022-10-26T00:59:51;12.70;99.90
17571;DHT22;8903;52.220;20.978;2022-10-26T01:02:20;12.70;99.90
17571;DHT22;8903;52.220;20.978;2022-10-26T01:04:47;12.70;99.90
17571;DHT22;8903;52.220;20.978;2022-10-26T01:07:15;12.60;99.90
17571;DHT22;8903;52.220;20.978;2022-10-26T01:09:43;12.60;99.90
17571;DHT22;8903;52.220;20.978;2022-10-26T01:12:09;12.60;99.90
17571;DHT22;8903;52.220;20.978;2022-10-26T01:14:36;12.60;99.90
17571;DHT22;8903;52.220;20.978;2022-10-26T01:17:11;12.60;99.90
17571;DHT22;8903;52.220;20.978;2022-10-26T01:20:11;12.60;99.90
17571;DHT22;8903;52.220;20.978;2022-10-26T01:22:50;12.60;99.90
17571;DHT22;8903;52.220;20.978;2022-10-26T01:25:32;12.60;99.90
17571;DHT22;8903;52.220;20.978;2022-10-26T01:28:06;12.60;99.90
17571;DHT22;8903;52.220;20.978;2022-10-26T01:30:40;12.60;99.90
17571;DHT22;8903;52.220;20.978;2022-10-26T01:33:17;12.60;99.90
17571;DHT22;8903;52.220;20.978;2022-10-26T01:35:51;12.60;99.90
17571;DHT22;8903;52.220;20.978;2022-10-26T01:38:24;12.60;99.90
17571;DHT22;8903;52.220;20.978;2022-10-26T01:40:56;12.60;99.90
17571;DHT22;8903;52.220;20.978;2022-10-26T01:43:29;12.60;99.90
17571;DHT22;8903;52.220;20.978;2022-10-26T01:46:00;12.60;99.90
17571;DHT22;8903;52.220;20.978;2022-10-26T01:48:28;12.60;99.90
17571;DHT22;8903;52.220;20.978;2022-10-26T01:50:56;12.60;99.90
17571;DHT22;8903;52.220;20.978;2022-10-26T01:53:25;12.60;99.90
17571;DHT22;8903;52.220;20.978;2022-10-26T01:55:53;12.60;99.90
17571;DHT22;8903;52.220;20.978;2022-10-26T01:58:43;12.60;99.90
17571;DHT22;8903;52.220;20.978;2022-10-26T02:04:14;12.60;99.90
17571;DHT22;8903;52.220;20.978;2022-10-26T02:06:50;12.50;99.90
17571;DHT22;8903;52.220;20.978;2022-10-26T02:09:27;12.50;99.90
17571;DHT22;8903;52.220;20.978;2022-10-26T02:11:55;12.50;99.90
17571;DHT22;8903;52.220;20.978;2022-10-26T02:14:28;12.50;99.90
17571;DHT22;8903;52.220;20.978;2022-10-26T02:17:05;12.50;99.90
17571;DHT22;8903;52.220;20.978;2022-10-26T02:19:39;12.50;99.90
17571;DHT22;8903;52.220;20.978;2022-10-26T02:22:13;12.40;99.90
17571;DHT22;8903;52.220;20.978;2022-10-26T02:24:41;12.40;99.90
17571;DHT22;8903;52.220;20.978;2022-10-26T02:27:14;12.40;99.90
17571;DHT22;8903;52.220;20.978;2022-10-26T02:29:43;12.40;99.90
17571;DHT22;8903;52.220;20.978;2022-10-26T02:32:11;12.40;99.90
17571;DHT22;8903;52.220;20.978;2022-10-26T02:34:43;12.40;99.90
17571;DHT22;8903;52.220;20.978;2022-10-26T02:37:12;12.40;99.90
17571;DHT22;8903;52.220;20.978;2022-10-26T02:39:42;12.30;99.90
17571;DHT22;8903;52.220;20.978;2022-10-26T02:42:12;12.30;99.90
17571;DHT22;8903;52.220;20.978;2022-10-26T02:44:45;12.30;99.90
17571;DHT22;8903;52.220;20.978;2022-10-26T02:47:15;12.30;99.90
17571;DHT22;8903;52.220;20.978;2022-10-26T02:49:43;12.30;99.90
17571;DHT22;8903;52.220;20.978;2022-10-26T02:52:15;12.30;99.90
17571;DHT22;8903;52.220;20.978;2022-10-26T02:54:50;12.30;99.90
17571;DHT22;8903;52.220;20.978;2022-10-26T02:57:22;12.30;99.90
17571;DHT22;8903;52.220;20.978;2022-10-26T02:59:53;12.30;99.90
17571;DHT22;8903;52.220;20.978;2022-10-26T03:02:22;12.20;99.90
17571;DHT22;8903;52.220;20.978;2022-10-26T03:04:50;12.20;99.90
17571;DHT22;8903;52.220;20.978;2022-10-26T03:07:20;12.20;99.90
17571;DHT22;8903;52.220;20.978;2022-10-26T03:09:47;12.20;99.90
17571;DHT22;8903;52.220;20.978;2022-10-26T03:12:14;12.20;99.90
17571;DHT22;8903;52.220;20.978;2022-10-26T03:14:41;12.20;99.90
17571;DHT22;8903;52.220;20.978;2022-10-26T03:17:08;12.20;99.90
17571;DHT22;8903;52.220;20.978;2022-10-26T03:19:36;12.20;99.90
17571;DHT22;8903;52.220;20.978;2022-10-26T03:22:03;12.30;99.90
17571;DHT22;8903;52.220;20.978;2022-10-26T03:24:30;12.30;99.90
17571;DHT22;8903;52.220;20.978;2022-10-26T03:26:57;12.20;99.90
17571;DHT22;8903;52.220;20.978;2022-10-26T03:29:23;12.20;99.90
17571;DHT22;8903;52.220;20.978;2022-10-26T03:31:50;12.20;99.90
17571;DHT22;8903;52.220;20.978;2022-10-26T03:34:19;12.20;99.90
17571;DHT22;8903;52.220;20.978;2022-10-26T03:36:47;12.20;99.90
17571;DHT22;8903;52.220;20.978;2022-10-26T03:39:14;12.20;99.90
17571;DHT22;8903;52.220;20.978;2022-10-26T03:41:41;12.20;99.90
17571;DHT22;8903;52.220;20.978;2022-10-26T03:44:08;12.20;99.90
17571;DHT22;8903;52.220;20.978;2022-10-26T03:46:35;12.20;99.90
17571;DHT22;8903;52.220;20.978;2022-10-26T03:49:02;12.10;99.90
17571;DHT22;8903;52.220;20.978;2022-10-26T03:51:29;12.10;99.90
17571;DHT22;8903;52.220;20.978;2022-10-26T03:53:57;12.10;99.90
17571;DHT22;8903;52.220;20.978;2022-10-26T03:56:24;12.10;99.90
17571;DHT22;8903;52.220;20.978;2022-10-26T03:58:51;12.10;99.90
17571;DHT22;8903;52.220;20.978;2022-10-26T04:01:18;12.10;99.90
17571;DHT22;8903;52.220;20.978;2022-10-26T04:03:45;12.10;99.90
17571;DHT22;8903;52.220;20.978;2022-10-26T04:06:12;12.10;99.90
17571;DHT22;8903;52.220;20.978;2022-10-26T04:08:39;12.10;99.90
17571;DHT22;8903;52.220;20.978;2022-10-26T04:11:07;12.00;99.90
17571;DHT22;8903;52.220;20.978;2022-10-26T04:13:34;11.90;99.90
17571;DHT22;8903;52.220;20.978;2022-10-26T04:16:01;12.00;99.90
17571;DHT22;8903;52.220;20.978;2022-10-26T04:18:28;11.90;99.90
17571;DHT22;8903;52.220;20.978;2022-10-26T04:20:55;11.90;99.90
17571;DHT22;8903;52.220;20.978;2022-10-26T04:23:26;11.90;99.90
17571;DHT22;8903;52.220;20.978;2022-10-26T04:25:53;12.00;99.90
17571;DHT22;8903;52.220;20.978;2022-10-26T04:28:21;12.00;99.90
17571;DHT22;8903;52.220;20.978;2022-10-26T04:30:48;12.00;99.90
17571;DHT22;8903;52.220;20.978;2022-10-26T04:33:15;12.00;99.90
17571;DHT22;8903;52.220;20.978;2022-10-26T04:35:42;11.90;99.90
17571;DHT22;8903;52.220;20.978;2022-10-26T04:38:10;11.90;99.90
17571;DHT22;8903;52.220;20.978;2022-10-26T04:40:37;11.90;99.90
17571;DHT22;8903;52.220;20.978;2022-10-26T04:43:04;11.90;99.90
17571;DHT22;8903;52.220;20.978;2022-10-26T04:45:33;11.90;99.90
17571;DHT22;8903;52.220;20.978;2022-10-26T04:48:02;11.80;99.90
17571;DHT22;8903;52.220;20.978;2022-10-26T04:50:29;11.70;99.90
17571;DHT22;8903;52.220;20.978;2022-10-26T04:52:56;11.70;99.90
17571;DHT22;8903;52.220;20.978;2022-10-26T04:55:23;11.70;99.90
17571;DHT22;8903;52.220;20.978;2022-10-26T04:57:50;11.80;99.90
17571;DHT22;8903;52.220;20.978;2022-10-26T05:00:17;11.80;99.90
17571;DHT22;8903;52.220;20.978;2022-10-26T05:02:46;11.80;99.90
17571;DHT22;8903;52.220;20.978;2022-10-26T05:05:13;11.80;99.90
17571;DHT22;8903;52.220;20.978;2022-10-26T05:07:40;11.80;99.90
17571;DHT22;8903;52.220;20.978;2022-10-26T05:10:08;11.80;99.90
17571;DHT22;8903;52.220;20.978;2022-10-26T05:12:35;11.90;99.90
17571;DHT22;8903;52.220;20.978;2022-10-26T05:15:05;11.90;99.90
17571;DHT22;8903;52.220;20.978;2022-10-26T05:17:33;11.90;99.90
17571;DHT22;8903;52.220;20.978;2022-10-26T05:20:01;11.90;99.90
17571;DHT22;8903;52.220;20.978;2022-10-26T05:22:30;11.90;99.90
17571;DHT22;8903;52.220;20.978;2022-10-26T05:24:57;11.90;99.90
17571;DHT22;8903;52.220;20.978;2022-10-26T05:27:24;11.80;99.90
17571;DHT22;8903;52.220;20.978;2022-10-26T05:29:51;11.90;99.90
17571;DHT22;8903;52.220;20.978;2022-10-26T05:32:18;11.80;99.90
17571;DHT22;8903;52.220;20.978;2022-10-26T05:34:45;11.80;99.90
17571;DHT22;8903;52.220;20.978;2022-10-26T05:37:13;11.90;99.90
17571;DHT22;8903;52.220;20.978;2022-10-26T05:39:40;11.80;99.90
17571;DHT22;8903;52.220;20.978;2022-10-26T05:42:08;11.90;99.90
17571;DHT22;8903;52.220;20.978;2022-10-26T05:44:35;11.90;99.90
17571;DHT22;8903;52.220;20.978;2022-10-26T05:47:01;11.90;99.90
17571;DHT22;8903;52.220;20.978;2022-10-26T05:49:28;12.00;99.90
17571;DHT22;8903;52.220;20.978;2022-10-26T05:51:55;12.00;99.90
17571;DHT22;8903;52.220;20.978;2022-10-26T05:54:23;12.00;99.90
17571;DHT22;8903;52.220;20.978;2022-10-26T05:56:51;12.00;99.90
17571;DHT22;8903;52.220;20.978;2022-10-26T05:59:18;12.00;99.90
17571;DHT22;8903;52.220;20.978;2022-10-26T06:01:54;12.00;99.90
17571;DHT22;8903;52.220;20.978;2022-10-26T06:04:35;12.00;99.90
17571;DHT22;8903;52.220;20.978;2022-10-26T06:07:06;12.10;99.90
17571;DHT22;8903;52.220;20.978;2022-10-26T06:09:36;12.10;99.90
17571;DHT22;8903;52.220;20.978;2022-10-26T06:12:04;12.10;99.90
17571;DHT22;8903;52.220;20.978;2022-10-26T06:14:32;12.10;99.90
17571;DHT22;8903;52.220;20.978;2022-10-26T06:17:09;12.10;99.90
17571;DHT22;8903;52.220;20.978;2022-10-26T06:19:46;12.10;99.90
17571;DHT22;8903;52.220;20.978;2022-10-26T06:22:32;12.10;99.90
17571;DHT22;8903;52.220;20.978;2022-10-26T06:25:08;12.10;99.90
17571;DHT22;8903;52.220;20.978;2022-10-26T06:27:45;12.10;99.90
17571;DHT22;8903;52.220;20.978;2022-10-26T06:30:20;12.20;99.90
17571;DHT22;8903;52.220;20.978;2022-10-26T06:32:49;12.10;99.90
17571;DHT22;8903;52.220;20.978;2022-10-26T06:35:26;12.10;99.90
17571;DHT22;8903;52.220;20.978;2022-10-26T06:38:01;12.20;99.90
17571;DHT22;8903;52.220;20.978;2022-10-26T06:40:32;12.20;99.90
17571;DHT22;8903;52.220;20.978;2022-10-26T06:43:02;12.20;99.90
17571;DHT22;8903;52.220;20.978;2022-10-26T06:45:29;12.30;99.90
17571;DHT22;8903;52.220;20.978;2022-10-26T06:47:59;12.30;99.90
17571;DHT22;8903;52.220;20.978;2022-10-26T06:50:33;12.30;99.90
17571;DHT22;8903;52.220;20.978;2022-10-26T06:53:08;12.30;99.90
17571;DHT22;8903;52.220;20.978;2022-10-26T06:55:42;12.40;99.90
17571;DHT22;8903;52.220;20.978;2022-10-26T06:58:13;12.40;99.90
17571;DHT22;8903;52.220;20.978;2022-10-26T07:00:41;12.40;99.90
17571;DHT22;8903;52.220;20.978;2022-10-26T07:03:09;12.40;99.90
17571;DHT22;8903;52.220;20.978;2022-10-26T07:05:36;12.40;99.90
17571;DHT22;8903;52.220;20.978;2022-10-26T07:08:04;12.50;99.90
17571;DHT22;8903;52.220;20.978;2022-10-26T07:10:31;12.40;99.90
17571;DHT22;8903;52.220;20.978;2022-10-26T07:13:01;12.50;99.90
17571;DHT22;8903;52.220;20.978;2022-10-26T07:15:27;12.50;99.90
17571;DHT22;8903;52.220;20.978;2022-10-26T07:17:54;12.60;99.90
17571;DHT22;8903;52.220;20.978;2022-10-26T07:20:21;12.50;99.90
17571;DHT22;8903;52.220;20.978;2022-10-26T07:22:51;12.60;99.90
17571;DHT22;8903;52.220;20.978;2022-10-26T07:25:18;12.60;99.90
17571;DHT22;8903;52.220;20.978;2022-10-26T07:27:45;12.60;99.90
17571;DHT22;8903;52.220;20.978;2022-10-26T07:30:14;12.60;99.90
17571;DHT22;8903;52.220;20.978;2022-10-26T07:32:41;12.60;99.90
17571;DHT22;8903;52.220;20.978;2022-10-26T07:35:08;12.50;99.90
17571;DHT22;8903;52.220;20.978;2022-10-26T07:37:35;12.50;99.90
17571;DHT22;8903;52.220;20.978;2022-10-26T07:40:02;12.40;99.90
17571;DHT22;8903;52.220;20.978;2022-10-26T07:42:30;12.40;99.90
17571;DHT22;8903;52.220;20.978;2022-10-26T07:44:56;12.50;99.90
17571;DHT22;8903;52.220;20.978;2022-10-26T07:47:24;12.40;99.90
17571;DHT22;8903;52.220;20.978;2022-10-26T07:49:51;12.50;99.90
17571;DHT22;8903;52.220;20.978;2022-10-26T07:52:18;12.50;99.90
17571;DHT22;8903;52.220;20.978;2022-10-26T07:54:45;12.50;99.90
17571;DHT22;8903;52.220;20.978;2022-10-26T07:57:12;12.50;99.90
17571;DHT22;8903;52.220;20.978;2022-10-26T07:59:41;12.40;99.90
17571;DHT22;8903;52.220;20.978;2022-10-26T08:02:08;12.40;99.90
17571;DHT22;8903;52.220;20.978;2022-10-26T08:04:37;12.40;99.90
17571;DHT22;8903;52.220;20.978;2022-10-26T08:07:03;12.50;99.90
17571;DHT22;8903;52.220;20.978;2022-10-26T08:09:30;12.50;99.90
17571;DHT22;8903;52.220;20.978;2022-10-26T08:11:57;12.40;99.90
17571;DHT22;8903;52.220;20.978;2022-10-26T08:14:24;12.40;99.90
17571;DHT22;8903;52.220;20.978;2022-10-26T08:16:51;12.40;99.90
17571;DHT22;8903;52.220;20.978;2022-10-26T08:19:18;12.40;99.90
17571;DHT22;8903;52.220;20.978;2022-10-26T08:21:46;12.40;99.90
17571;DHT22;8903;52.220;20.978;2022-10-26T08:24:13;12.30;99.90
17571;DHT22;8903;52.220;20.978;2022-10-26T08:26:40;12.30;99.90
17571;DHT22;8903;52.220;20.978;2022-10-26T08:29:07;12.30;99.90
17571;DHT22;8903;52.220;20.978;2022-10-26T08:31:34;12.20;99.90
17571;DHT22;8903;52.220;20.978;2022-10-26T08:34:01;12.20;99.90
17571;DHT22;8903;52.220;20.978;2022-10-26T08:36:29;12.20;99.90
17571;DHT22;8903;52.220;20.978;2022-10-26T08:38:57;12.10;99.90
17571;DHT22;8903;52.220;20.978;2022-10-26T08:41:32;12.10;99.90
17571;DHT22;8903;52.220;20.978;2022-10-26T08:44:04;12.00;99.90
17571;DHT22;8903;52.220;20.978;2022-10-26T08:46:36;12.00;99.90
17571;DHT22;8903;52.220;20.978;2022-10-26T08:49:12;12.00;99.90
17571;DHT22;8903;52.220;20.978;2022-10-26T08:51:43;12.00;99.90
17571;DHT22;8903;52.220;20.978;2022-10-26T08:54:17;12.00;99.90
17571;DHT22;8903;52.220;20.978;2022-10-26T08:56:48;12.00;99.90
17571;DHT22;8903;52.220;20.978;2022-10-26T08:59:22;12.10;99.90
17571;DHT22;8903;52.220;20.978;2022-10-26T09:01:51;12.20;99.90
17571;DHT22;8903;52.220;20.978;2022-10-26T09:04:24;12.10;99.90
17571;DHT22;8903;52.220;20.978;2022-10-26T09:06:57;12.10;99.90
17571;DHT22;8903;52.220;20.978;2022-10-26T09:09:34;12.10;99.90
17571;DHT22;8903;52.220;20.978;2022-10-26T09:12:08;12.10;99.90
17571;DHT22;8903;52.220;20.978;2022-10-26T09:14:45;12.10;99.90
17571;DHT22;8903;52.220;20.978;2022-10-26T09:17:26;12.20;99.90
17571;DHT22;8903;52.220;20.978;2022-10-26T09:20:08;12.30;99.90
17571;DHT22;8903;52.220;20.978;2022-10-26T09:22:44;12.40;99.90
17571;DHT22;8903;52.220;20.978;2022-10-26T09:25:18;12.40;99.90
17571;DHT22;8903;52.220;20.978;2022-10-26T09:27:48;12.40;99.90
17571;DHT22;8903;52.220;20.978;2022-10-26T09:30:18;12.50;99.90
17571;DHT22;8903;52.220;20.978;2022-10-26T09:32:46;12.70;99.90
17571;DHT22;8903;52.220;20.978;2022-10-26T09:35:17;12.80;99.90
17571;DHT22;8903;52.220;20.978;2022-10-26T09:37:48;12.70;99.90
17571;DHT22;8903;52.220;20.978;2022-10-26T09:40:22;12.80;99.90
17571;DHT22;8903;52.220;20.978;2022-10-26T09:42:56;12.70;99.90
17571;DHT22;8903;52.220;20.978;2022-10-26T09:45:28;12.70;99.90
17571;DHT22;8903;52.220;20.978;2022-10-26T09:48:00;12.70;99.90
17571;DHT22;8903;52.220;20.978;2022-10-26T09:50:33;12.60;99.90
17571;DHT22;8903;52.220;20.978;2022-10-26T09:53:01;12.70;99.90
17571;DHT22;8903;52.220;20.978;2022-10-26T09:55:30;12.80;99.90
17571;DHT22;8903;52.220;20.978;2022-10-26T09:58:01;12.80;99.90
17571;DHT22;8903;52.220;20.978;2022-10-26T10:00:29;12.90;99.90
17571;DHT22;8903;52.220;20.978;2022-10-26T10:02:57;13.00;99.90
17571;DHT22;8903;52.220;20.978;2022-10-26T10:05:26;13.00;99.90
17571;DHT22;8903;52.220;20.978;2022-10-26T10:08:09;13.00;99.90
17571;DHT22;8903;52.220;20.978;2022-10-26T10:10:38;13.00;99.90
17571;DHT22;8903;52.220;20.978;2022-10-26T10:13:15;13.00;99.90
17571;DHT22;8903;52.220;20.978;2022-10-26T10:15:51;13.00;99.90
17571;DHT22;8903;52.220;20.978;2022-10-26T10:18:19;13.10;99.90
17571;DHT22;8903;52.220;20.978;2022-10-26T10:20:54;13.30;99.90
17571;DHT22;8903;52.220;20.978;2022-10-26T10:23:27;13.30;99.90
17571;DHT22;8903;52.220;20.978;2022-10-26T10:26:03;13.30;99.90
17571;DHT22;8903;52.220;20.978;2022-10-26T10:28:31;13.30;99.90
17571;DHT22;8903;52.220;20.978;2022-10-26T10:31:00;13.30;99.90
17571;DHT22;8903;52.220;20.978;2022-10-26T10:33:36;13.40;99.90
17571;DHT22;8903;52.220;20.978;2022-10-26T10:36:07;13.40;99.90
17571;DHT22;8903;52.220;20.978;2022-10-26T10:38:42;13.50;99.90
17571;DHT22;8903;52.220;20.978;2022-10-26T10:41:23;13.60;99.90
17571;DHT22;8903;52.220;20.978;2022-10-26T10:43:53;13.60;99.90
17571;DHT22;8903;52.220;20.978;2022-10-26T10:46:24;13.70;99.90
17571;DHT22;8903;52.220;20.978;2022-10-26T10:49:00;13.80;99.90
17571;DHT22;8903;52.220;20.978;2022-10-26T10:51:29;13.70;99.90
17571;DHT22;8903;52.220;20.978;2022-10-26T10:53:59;13.80;99.90
17571;DHT22;8903;52.220;20.978;2022-10-26T10:56:35;13.90;99.90
17571;DHT22;8903;52.220;20.978;2022-10-26T10:59:14;14.00;99.90
17571;DHT22;8903;52.220;20.978;2022-10-26T11:01:48;14.00;99.90
17571;DHT22;8903;52.220;20.978;2022-10-26T11:04:44;14.20;99.90
17571;DHT22;8903;52.220;20.978;2022-10-26T11:07:17;14.20;99.90
17571;DHT22;8903;52.220;20.978;2022-10-26T11:09:46;14.30;99.90
17571;DHT22;8903;52.220;20.978;2022-10-26T11:12:17;14.30;99.90
17571;DHT22;8903;52.220;20.978;2022-10-26T11:14:52;14.30;99.90
17571;DHT22;8903;52.220;20.978;2022-10-26T11:17:23;14.30;99.90
17571;DHT22;8903;52.220;20.978;2022-10-26T11:19:54;14.30;99.90
17571;DHT22;8903;52.220;20.978;2022-10-26T11:22:25;14.30;99.90
17571;DHT22;8903;52.220;20.978;2022-10-26T11:24:56;14.30;99.90
17571;DHT22;8903;52.220;20.978;2022-10-26T11:27:29;14.60;99.90
17571;DHT22;8903;52.220;20.978;2022-10-26T11:30:02;14.60;99.90
17571;DHT22;8903;52.220;20.978;2022-10-26T11:32:35;14.40;99.90
17571;DHT22;8903;52.220;20.978;2022-10-26T11:35:10;14.20;99.90
17571;DHT22;8903;52.220;20.978;2022-10-26T11:37:44;14.10;99.90
17571;DHT22;8903;52.220;20.978;2022-10-26T11:40:21;14.10;99.90
17571;DHT22;8903;52.220;20.978;2022-10-26T11:43:00;14.00;99.90
17571;DHT22;8903;52.220;20.978;2022-10-26T11:45:30;14.00;99.90
17571;DHT22;8903;52.220;20.978;2022-10-26T11:48:05;13.90;99.90
17571;DHT22;8903;52.220;20.978;2022-10-26T11:50:39;13.90;99.90
17571;DHT22;8903;52.220;20.978;2022-10-26T11:53:10;13.80;99.90
17571;DHT22;8903;52.220;20.978;2022-10-26T11:55:39;13.90;99.90
17571;DHT22;8903;52.220;20.978;2022-10-26T11:58:09;13.90;99.90
17571;DHT22;8903;52.220;20.978;2022-10-26T12:00:43;13.90;99.90
17571;DHT22;8903;52.220;20.978;2022-10-26T12:03:15;13.80;99.90
17571;DHT22;8903;52.220;20.978;2022-10-26T12:05:47;13.70;99.90
17571;DHT22;8903;52.220;20.978;2022-10-26T12:08:19;13.80;99.90
17571;DHT22;8903;52.220;20.978;2022-10-26T12:10:51;13.80;99.90
17571;DHT22;8903;52.220;20.978;2022-10-26T12:13:26;13.80;99.90
17571;DHT22;8903;52.220;20.978;2022-10-26T12:16:03;13.70;99.90
17571;DHT22;8903;52.220;20.978;2022-10-26T12:18:37;13.60;99.90
17571;DHT22;8903;52.220;20.978;2022-10-26T12:21:07;13.70;99.90
17571;DHT22;8903;52.220;20.978;2022-10-26T12:23:37;13.50;99.90
17571;DHT22;8903;52.220;20.978;2022-10-26T12:29:41;13.40;99.90
17571;DHT22;8903;52.220;20.978;2022-10-26T12:35:44;13.40;99.90
17571;DHT22;8903;52.220;20.978;2022-10-26T12:41:19;13.50;99.90
17571;DHT22;8903;52.220;20.978;2022-10-26T12:43:46;13.50;99.90
17571;DHT22;8903;52.220;20.978;2022-10-26T12:46:42;13.40;99.90
17571;DHT22;8903;52.220;20.978;2022-10-26T12:52:51;13.40;99.90
17571;DHT22;8903;52.220;20.978;2022-10-26T13:01:44;13.50;99.90
17571;DHT22;8903;52.220;20.978;2022-10-26T13:04:24;13.60;99.90
17571;DHT22;8903;52.220;20.978;2022-10-26T13:07:16;13.60;99.90
17571;DHT22;8903;52.220;20.978;2022-10-26T13:09:45;13.50;99.90
17571;DHT22;8903;52.220;20.978;2022-10-26T13:12:14;13.40;99.90
17571;DHT22;8903;52.220;20.978;2022-10-26T13:14:53;13.40;99.90
17571;DHT22;8903;52.220;20.978;2022-10-26T13:17:25;13.40;99.90
17571;DHT22;8903;52.220;20.978;2022-10-26T13:19:55;13.40;99.90
17571;DHT22;8903;52.220;20.978;2022-10-26T13:22:23;13.50;99.90
17571;DHT22;8903;52.220;20.978;2022-10-26T13:24:52;13.40;99.90
17571;DHT22;8903;52.220;20.978;2022-10-26T13:27:39;13.40;99.90
17571;DHT22;8903;52.220;20.978;2022-10-26T13:35:59;13.60;99.90
17571;DHT22;8903;52.220;20.978;2022-10-26T13:38:31;13.60;99.90
17571;DHT22;8903;52.220;20.978;2022-10-26T13:41:06;13.50;99.90
17571;DHT22;8903;52.220;20.978;2022-10-26T13:43:35;13.50;99.90
17571;DHT22;8903;52.220;20.978;2022-10-26T13:46:03;13.50;99.90
17571;DHT22;8903;52.220;20.978;2022-10-26T13:48:38;13.50;99.90
17571;DHT22;8903;52.220;20.978;2022-10-26T13:51:13;13.60;99.90
17571;DHT22;8903;52.220;20.978;2022-10-26T13:53:48;13.60;99.90
17571;DHT22;8903;52.220;20.978;2022-10-26T13:56:24;13.60;99.90
17571;DHT22;8903;52.220;20.978;2022-10-26T13:58:56;13.60;99.90
17571;DHT22;8903;52.220;20.978;2022-10-26T14:01:25;13.50;99.90
17571;DHT22;8903;52.220;20.978;2022-10-26T14:03:54;13.50;99.90
17571;DHT22;8903;52.220;20.978;2022-10-26T14:06:25;13.50;99.90
17571;DHT22;8903;52.220;20.978;2022-10-26T14:08:56;13.50;99.90
17571;DHT22;8903;52.220;20.978;2022-10-26T14:11:33;13.60;99.90
17571;DHT22;8903;52.220;20.978;2022-10-26T14:14:02;13.60;99.90
17571;DHT22;8903;52.220;20.978;2022-10-26T14:16:31;13.60;99.90
17571;DHT22;8903;52.220;20.978;2022-10-26T14:19:01;13.60;99.90
17571;DHT22;8903;52.220;20.978;2022-10-26T14:21:28;13.80;99.90
17571;DHT22;8903;52.220;20.978;2022-10-26T14:23:57;13.80;99.90
17571;DHT22;8903;52.220;20.978;2022-10-26T14:26:26;13.80;99.90
17571;DHT22;8903;52.220;20.978;2022-10-26T14:28:55;13.70;99.90
17571;DHT22;8903;52.220;20.978;2022-10-26T14:31:27;13.60;99.90
17571;DHT22;8903;52.220;20.978;2022-10-26T14:33:56;13.50;99.90
17571;DHT22;8903;52.220;20.978;2022-10-26T14:36:28;13.50;99.90
17571;DHT22;8903;52.220;20.978;2022-10-26T14:38:58;13.50;99.90
17571;DHT22;8903;52.220;20.978;2022-10-26T14:41:29;13.20;99.90
17571;DHT22;8903;52.220;20.978;2022-10-26T14:43:58;13.20;99.90
17571;DHT22;8903;52.220;20.978;2022-10-26T14:46:27;13.10;99.90
17571;DHT22;8903;52.220;20.978;2022-10-26T14:49:00;13.10;99.90
17571;DHT22;8903;52.220;20.978;2022-10-26T14:51:33;13.00;99.90
17571;DHT22;8903;52.220;20.978;2022-10-26T14:54:01;13.10;99.90
17571;DHT22;8903;52.220;20.978;2022-10-26T14:56:37;13.00;99.90
17571;DHT22;8903;52.220;20.978;2022-10-26T14:59:10;13.00;99.90
17571;DHT22;8903;52.220;20.978;2022-10-26T15:01:48;12.90;99.90
17571;DHT22;8903;52.220;20.978;2022-10-26T15:04:28;12.80;99.90
17571;DHT22;8903;52.220;20.978;2022-10-26T15:07:07;12.70;99.90
17571;DHT22;8903;52.220;20.978;2022-10-26T15:09:41;12.70;99.90
17571;DHT22;8903;52.220;20.978;2022-10-26T15:12:18;12.60;99.90
17571;DHT22;8903;52.220;20.978;2022-10-26T15:14:46;12.50;99.90
17571;DHT22;8903;52.220;20.978;2022-10-26T15:17:20;12.50;99.90
17571;DHT22;8903;52.220;20.978;2022-10-26T15:19:49;12.40;99.90
17571;DHT22;8903;52.220;20.978;2022-10-26T15:22:28;12.40;99.90
17571;DHT22;8903;52.220;20.978;2022-10-26T15:24:57;12.30;99.90
17571;DHT22;8903;52.220;20.978;2022-10-26T15:27:27;12.30;99.90
17571;DHT22;8903;52.220;20.978;2022-10-26T15:30:10;12.20;99.90
17571;DHT22;8903;52.220;20.978;2022-10-26T15:32:38;12.20;99.90
17571;DHT22;8903;52.220;20.978;2022-10-26T15:37:58;12.10;99.90
17571;DHT22;8903;52.220;20.978;2022-10-26T15:40:27;12.00;99.90
17571;DHT22;8903;52.220;20.978;2022-10-26T15:42:58;12.00;99.90
17571;DHT22;8903;52.220;20.978;2022-10-26T15:45:26;11.90;99.90
17571;DHT22;8903;52.220;20.978;2022-10-26T15:47:56;11.90;99.90
17571;DHT22;8903;52.220;20.978;2022-10-26T15:50:25;11.80;99.90
17571;DHT22;8903;52.220;20.978;2022-10-26T15:52:55;11.80;99.90
17571;DHT22;8903;52.220;20.978;2022-10-26T15:55:26;11.80;99.90
17571;DHT22;8903;52.220;20.978;2022-10-26T15:57:53;11.70;99.90
17571;DHT22;8903;52.220;20.978;2022-10-26T16:00:19;11.70;99.90
17571;DHT22;8903;52.220;20.978;2022-10-26T16:02:47;11.70;99.90
17571;DHT22;8903;52.220;20.978;2022-10-26T16:05:15;11.70;99.90
17571;DHT22;8903;52.220;20.978;2022-10-26T16:07:44;11.60;99.90
17571;DHT22;8903;52.220;20.978;2022-10-26T16:10:20;11.60;99.90
17571;DHT22;8903;52.220;20.978;2022-10-26T16:12:49;11.60;99.90
17571;DHT22;8903;52.220;20.978;2022-10-26T16:15:18;11.60;99.90
17571;DHT22;8903;52.220;20.978;2022-10-26T16:17:45;11.60;99.90
17571;DHT22;8903;52.220;20.978;2022-10-26T16:20:14;11.60;99.90
17571;DHT22;8903;52.220;20.978;2022-10-26T16:22:42;11.50;99.90